Time;durP1;ratioP1;P1;durP2;ratioP2;P2;SDS_P1;SDS_P2;PMS_P1;PMS_P2;Temp;Humidity;BMP_temperature;BMP_pressure;BME280_temperature;BME280_humidity;BME280_pressure;Samples;Min_cycle;Max_cycle;Signal;HPM_P1;HPM_P2
2022/03/26 00:01:40;;;;;;;;;56.50;47.50;;;;;13.11;41.09;102064.59;5043458;28;45507;-56
2022/03/26 00:04:05;;;;;;;;;56.50;47.25;;;;;13.23;40.44;102097.94;5048231;28;45440;-57
2022/03/26 00:06:32;;;;;;;;;56.75;45.75;;;;;13.17;41.08;102095.53;5054516;28;45565;-57
2022/03/26 00:08:57;;;;;;;;;58.25;45.50;;;;;13.17;41.15;102103.53;5054102;28;45359;-59
2022/03/26 00:11:23;;;;;;;;;52.25;41.75;;;;;13.09;41.04;102097.66;5049297;28;46422;-60
2022/03/26 00:13:48;;;;;;;;;53.25;42.75;;;;;13.08;41.39;102103.91;5043133;28;45290;-58
2022/03/26 00:16:14;;;;;;;;;63.75;51.25;;;;;13.03;41.07;102097.91;5038394;28;45267;-59
2022/03/26 00:18:39;;;;;;;;;64.25;49.75;;;;;12.98;40.86;102082.94;5045476;28;45592;-61
2022/03/26 00:21:05;;;;;;;;;58.50;45.75;;;;;13.02;41.43;102086.38;5046475;28;46419;-57
2022/03/26 00:23:31;;;;;;;;;43.25;30.50;;;;;13.06;41.53;102100.44;5039291;28;45521;-61
2022/03/26 00:25:58;;;;;;;;;56.50;45.25;;;;;12.97;42.26;102083.88;5047710;28;45691;-58
2022/03/26 00:28:24;;;;;;;;;37.50;31.75;;;;;12.91;41.11;102076.13;5057774;28;45707;-59
2022/03/26 00:30:50;;;;;;;;;61.00;48.75;;;;;12.91;41.44;102096.63;5057716;28;45795;-58
2022/03/26 00:33:17;;;;;;;;;57.75;46.00;;;;;12.85;42.05;102097.72;5029393;28;45508;-60
2022/03/26 00:35:43;;;;;;;;;54.25;45.50;;;;;12.81;42.21;102087.25;5045117;28;45566;-59
2022/03/26 00:38:09;;;;;;;;;58.75;45.25;;;;;12.81;42.13;102084.59;5051667;28;45470;-59
2022/03/26 00:40:35;;;;;;;;;62.75;47.50;;;;;12.81;42.11;102095.25;5038891;28;49570;-61
2022/03/26 00:43:01;;;;;;;;;71.25;54.25;;;;;12.72;42.36;102085.81;5049565;28;45309;-59
2022/03/26 00:45:29;;;;;;;;;66.75;50.75;;;;;12.62;42.40;102088.00;5053507;28;45520;-60
2022/03/26 00:47:55;;;;;;;;;62.75;47.50;;;;;12.63;42.46;102080.84;5039930;28;45689;-60
2022/03/26 00:50:21;;;;;;;;;72.75;57.00;;;;;12.60;42.54;102094.34;5046381;28;45481;-60
2022/03/26 00:52:47;;;;;;;;;69.50;51.00;;;;;12.68;42.39;102084.22;5039592;28;45392;-61
2022/03/26 00:55:13;;;;;;;;;55.25;45.25;;;;;12.57;42.22;102086.47;5045437;28;45232;-59
2022/03/26 00:57:38;;;;;;;;;67.75;53.25;;;;;12.54;42.83;102082.13;5049532;28;45405;-60
2022/03/26 01:00:06;;;;;;;;;66.00;52.50;;;;;12.56;43.32;102096.25;5051666;28;46165;-58
2022/03/26 01:02:32;;;;;;;;;74.25;55.25;;;;;12.48;43.10;102084.16;5046934;28;45476;-58
2022/03/26 01:04:58;;;;;;;;;70.00;54.00;;;;;12.45;42.52;102082.47;5057670;28;45323;-60
2022/03/26 01:07:25;;;;;;;;;71.00;52.50;;;;;12.47;42.73;102095.75;5031964;28;45574;-59
2022/03/26 01:09:50;;;;;;;;;61.75;50.00;;;;;12.43;43.19;102096.81;5057895;28;45411;-58
2022/03/26 01:12:17;;;;;;;;;60.25;45.25;;;;;12.36;43.53;102094.38;5055023;28;45469;-60
2022/03/26 01:14:43;;;;;;;;;58.75;47.25;;;;;12.23;43.53;102082.44;5044694;28;45255;-58
2022/03/26 01:17:08;;;;;;;;;58.00;45.75;;;;;12.26;43.64;102087.69;5038921;28;45237;-56
2022/03/26 01:19:34;;;;;;;;;53.25;42.00;;;;;12.29;43.07;102087.56;5043930;28;46016;-57
2022/03/26 01:21:59;;;;;;;;;14.25;10.25;;;;;12.23;43.80;102085.13;5054654;28;45316;-57
2022/03/26 01:24:25;;;;;;;;;58.50;45.00;;;;;12.22;43.53;102083.38;5047156;28;45303;-58
2022/03/26 01:26:50;;;;;;;;;54.00;43.75;;;;;12.25;43.61;102085.97;5046384;28;45470;-58
2022/03/26 01:29:17;;;;;;;;;60.00;45.50;;;;;12.15;43.30;102063.22;5030233;28;46393;-60
2022/03/26 01:31:43;;;;;;;;;53.50;42.50;;;;;12.15;43.64;102065.91;5049356;28;45510;-60
2022/03/26 01:34:08;;;;;;;;;47.25;41.50;;;;;12.19;43.48;102078.19;5056632;28;45375;-58
2022/03/26 01:36:34;;;;;;;;;57.50;43.25;;;;;12.16;43.86;102086.31;5051807;28;45431;-60
2022/03/26 01:38:59;;;;;;;;;61.75;45.50;;;;;12.12;43.50;102074.03;5042360;28;46047;-57
2022/03/26 01:41:25;;;;;;;;;55.50;43.50;;;;;12.12;43.58;102068.69;5030724;28;45835;-60
2022/03/26 01:43:50;;;;;;;;;61.25;47.25;;;;;12.15;43.68;102078.38;5033941;28;45503;-59
2022/03/26 01:46:15;;;;;;;;;58.75;44.75;;;;;12.10;43.57;102070.53;5053619;28;45380;-60
2022/03/26 01:48:41;;;;;;;;;54.50;43.50;;;;;12.01;43.92;102070.91;5052601;28;46068;-56
2022/03/26 01:51:16;;;;;;;;;54.75;45.25;;;;;12.00;44.30;102070.03;5053277;28;45453;-60
2022/03/26 01:53:48;;;;;;;;;60.50;46.75;;;;;11.93;43.84;102070.31;5042528;28;45339;-56
2022/03/26 01:56:15;;;;;;;;;57.00;46.50;;;;;11.85;44.32;102067.97;5020622;28;46975;-59
2022/03/26 01:58:41;;;;;;;;;63.00;45.75;;;;;11.82;44.12;102060.91;5039156;28;46967;-57
2022/03/26 02:01:07;;;;;;;;;58.75;46.00;;;;;11.85;44.51;102070.63;5048813;28;45486;-60
2022/03/26 02:03:32;;;;;;;;;60.00;46.50;;;;;11.91;44.19;102064.19;5038619;28;45327;-57
2022/03/26 02:05:58;;;;;;;;;58.00;43.50;;;;;11.90;43.96;102057.09;5057066;28;46495;-61
2022/03/26 02:08:24;;;;;;;;;56.50;43.25;;;;;11.91;44.42;102061.50;5038519;28;46015;-61
2022/03/26 02:10:50;;;;;;;;;55.75;46.00;;;;;11.88;44.60;102048.31;5050981;28;45289;-58
2022/03/26 02:13:16;;;;;;;;;59.75;46.00;;;;;11.80;44.52;102052.13;5036828;28;45361;-58
2022/03/26 02:15:41;;;;;;;;;44.25;37.25;;;;;11.79;44.39;102050.38;5051700;28;45223;-59
2022/03/26 02:18:08;;;;;;;;;57.75;45.75;;;;;11.92;44.43;102068.59;5044571;28;46489;-60
2022/03/26 02:20:33;;;;;;;;;60.75;47.00;;;;;11.94;44.30;102064.06;5040654;28;45482;-62
2022/03/26 02:22:58;;;;;;;;;51.25;39.75;;;;;11.85;44.56;102059.97;5054486;28;45358;-61
2022/03/26 02:25:24;;;;;;;;;57.00;46.75;;;;;11.77;44.50;102044.22;5055536;28;45569;-58
2022/03/26 02:27:50;;;;;;;;;59.00;43.50;;;;;11.87;44.49;102057.22;5052652;28;46113;-61
2022/03/26 02:30:15;;;;;;;;;59.75;47.25;;;;;11.72;44.20;102040.00;5057910;28;45418;-61
2022/03/26 02:32:41;;;;;;;;;55.00;44.25;;;;;11.78;45.05;102048.63;5058003;28;45307;-58
2022/03/26 02:35:06;;;;;;;;;58.00;46.50;;;;;11.77;45.38;102044.22;5038505;28;45347;-59
2022/03/26 02:37:33;;;;;;;;;56.00;45.75;;;;;11.84;45.14;102049.34;5026457;28;46720;-58
2022/03/26 02:39:59;;;;;;;;;67.00;46.75;;;;;11.92;44.29;102044.59;5046031;28;45248;-60
2022/03/26 02:42:25;;;;;;;;;42.00;38.75;;;;;11.86;44.47;102044.84;5044843;28;45527;-59
2022/03/26 02:44:51;;;;;;;;;59.25;44.50;;;;;11.67;45.27;102034.81;5056539;28;45607;-58
2022/03/26 02:47:18;;;;;;;;;54.50;44.00;;;;;11.65;44.63;102046.47;5055650;28;47337;-58
2022/03/26 02:49:43;;;;;;;;;65.75;47.50;;;;;11.59;45.29;102052.00;5054841;28;45513;-59
2022/03/26 02:52:09;;;;;;;;;62.75;47.50;;;;;11.51;45.46;102034.53;5055487;28;45354;-58
2022/03/26 02:54:35;;;;;;;;;58.25;45.00;;;;;11.49;45.00;102030.19;5038128;28;45724;-57
2022/03/26 02:57:01;;;;;;;;;59.50;43.00;;;;;11.51;45.54;102045.19;5045161;28;46350;-56
2022/03/26 02:59:28;;;;;;;;;63.00;48.00;;;;;11.49;45.61;102046.19;5049670;28;45308;-56
2022/03/26 03:01:53;;;;;;;;;49.00;40.50;;;;;11.46;45.08;102046.28;5045652;28;45312;-57
2022/03/26 03:04:20;;;;;;;;;55.25;45.75;;;;;11.39;45.60;102039.44;5056190;28;45608;-57
2022/03/26 03:06:46;;;;;;;;;55.00;44.25;;;;;11.45;45.54;102042.72;5050717;28;47503;-56
2022/03/26 03:09:12;;;;;;;;;61.50;48.50;;;;;11.49;45.62;102040.84;5035964;28;45465;-59
2022/03/26 03:11:37;;;;;;;;;61.00;47.50;;;;;11.51;45.57;102046.97;5042919;28;45415;-61
2022/03/26 03:14:04;;;;;;;;;58.25;46.25;;;;;11.53;45.58;102050.44;5045558;28;45458;-59
2022/03/26 03:16:31;;;;;;;;;53.50;43.75;;;;;11.53;45.43;102045.13;5056009;28;45464;-59
2022/03/26 03:18:56;;;;;;;;;50.75;44.00;;;;;11.54;45.50;102044.19;5056579;28;45356;-61
2022/03/26 03:21:22;;;;;;;;;60.50;44.75;;;;;11.48;45.15;102044.44;5053871;28;45359;-57
2022/03/26 03:23:47;;;;;;;;;59.25;45.75;;;;;11.41;45.88;102033.13;5037621;28;45169;-60
2022/03/26 03:26:13;;;;;;;;;60.00;45.25;;;;;11.26;45.98;102033.69;5037011;28;46186;-58
2022/03/26 03:28:39;;;;;;;;;61.50;47.00;;;;;11.24;46.17;102040.88;5039024;28;45364;-59
2022/03/26 03:31:04;;;;;;;;;57.75;47.50;;;;;11.21;45.98;102046.31;5036555;28;45402;-59
2022/03/26 03:33:30;;;;;;;;;59.25;47.00;;;;;11.05;45.71;102035.31;5056618;28;45478;-62
2022/03/26 03:35:56;;;;;;;;;56.00;45.75;;;;;11.02;46.89;102026.56;5049805;28;45880;-59
2022/03/26 03:38:22;;;;;;;;;65.00;49.00;;;;;10.96;46.55;102019.69;5056686;28;45431;-57
2022/03/26 03:40:47;;;;;;;;;59.50;45.50;;;;;11.01;47.30;102039.00;5048175;28;45705;-55
2022/03/26 03:43:12;;;;;;;;;58.00;44.25;;;;;11.05;46.69;102043.28;5058051;28;45895;-58
2022/03/26 03:45:38;;;;;;;;;60.50;49.00;;;;;11.08;47.24;102043.22;5058777;28;45390;-56
2022/03/26 03:48:04;;;;;;;;;60.75;47.75;;;;;11.13;46.58;102043.91;5038769;28;45467;-56
2022/03/26 03:50:29;;;;;;;;;61.75;49.25;;;;;11.12;46.85;102036.84;5058865;28;45474;-59
2022/03/26 03:52:54;;;;;;;;;61.50;49.50;;;;;11.20;46.50;102049.91;5058928;28;45524;-58
2022/03/26 03:55:21;;;;;;;;;66.00;49.00;;;;;11.18;46.62;102047.25;5040475;28;47043;-60
2022/03/26 03:57:46;;;;;;;;;58.00;43.50;;;;;11.09;45.73;102044.06;5058825;28;45540;-58
2022/03/26 04:00:14;;;;;;;;;51.75;39.50;;;;;11.07;46.77;102044.13;5036305;28;45508;-57
2022/03/26 04:02:41;;;;;;;;;67.75;50.00;;;;;11.08;46.58;102043.22;5058164;28;45643;-58
2022/03/26 04:05:09;;;;;;;;;60.50;44.00;;;;;11.02;46.57;102027.44;5052527;28;46151;-60
2022/03/26 04:07:36;;;;;;;;;53.00;42.50;;;;;11.14;46.70;102056.28;5058910;28;45562;-59
2022/03/26 04:10:02;;;;;;;;;58.50;46.25;;;;;11.06;46.68;102057.47;5048888;28;45360;-57
2022/03/26 04:12:28;;;;;;;;;62.75;51.75;;;;;11.01;46.46;102051.44;5033494;28;45336;-58
2022/03/26 04:14:53;;;;;;;;;64.25;51.50;;;;;11.00;46.97;102047.91;5052392;28;45511;-60
2022/03/26 04:17:19;;;;;;;;;59.75;46.00;;;;;11.04;46.91;102054.88;5058413;28;45258;-58
2022/03/26 04:19:44;;;;;;;;;58.00;46.25;;;;;11.02;46.79;102045.19;5057461;28;45659;-59
2022/03/26 04:22:09;;;;;;;;;65.75;47.50;;;;;11.07;46.45;102059.25;5057003;28;45439;-57
2022/03/26 04:24:36;;;;;;;;;57.50;45.00;;;;;11.03;46.63;102063.78;5057294;28;45237;-59
2022/03/26 04:27:03;;;;;;;;;56.50;39.25;;;;;10.94;47.28;102058.78;5029352;28;45253;-54
2022/03/26 04:29:29;;;;;;;;;68.25;49.00;;;;;10.85;46.93;102064.41;5050454;28;45420;-58
2022/03/26 04:31:55;;;;;;;;;66.50;48.75;;;;;10.73;47.21;102063.03;5057484;28;45955;-56
2022/03/26 04:34:20;;;;;;;;;67.50;49.75;;;;;10.51;47.95;102048.69;5037549;28;46859;-56
2022/03/26 04:36:46;;;;;;;;;52.25;43.50;;;;;10.55;48.21;102067.19;5050981;28;45463;-59
2022/03/26 04:39:11;;;;;;;;;58.50;45.25;;;;;10.58;47.82;102066.19;5052161;28;45367;-57
2022/03/26 04:41:37;;;;;;;;;61.25;48.50;;;;;10.57;47.12;102070.66;5057434;28;45474;-55
2022/03/26 04:44:03;;;;;;;;;60.00;44.50;;;;;10.43;47.93;102062.25;5057806;28;45351;-57
2022/03/26 04:46:29;;;;;;;;;62.00;48.75;;;;;10.53;47.89;102071.66;5037319;28;45403;-60
2022/03/26 04:48:54;;;;;;;;;63.25;50.00;;;;;10.56;47.42;102063.59;5054508;28;45392;-58
2022/03/26 04:51:20;;;;;;;;;66.50;51.25;;;;;10.53;47.55;102063.66;5056769;28;45400;-57
2022/03/26 04:53:45;;;;;;;;;56.25;45.25;;;;;10.59;47.66;102070.59;5054878;28;45303;-60
2022/03/26 04:56:11;;;;;;;;;63.75;48.75;;;;;10.52;47.48;102069.03;5038146;28;45390;-58
2022/03/26 04:58:36;;;;;;;;;62.25;49.00;;;;;10.43;47.75;102080.00;5057072;28;45319;-56
2022/03/26 05:01:02;;;;;;;;;63.75;50.25;;;;;10.30;48.75;102056.44;5031883;28;45224;-60
2022/03/26 05:03:28;;;;;;;;;62.00;49.00;;;;;10.40;47.55;102064.13;5061452;28;45465;-58
2022/03/26 05:05:54;;;;;;;;;63.25;49.50;;;;;10.35;48.49;102074.91;5046269;28;45435;-58
2022/03/26 05:08:19;;;;;;;;;62.50;50.25;;;;;10.22;48.67;102047.84;5058004;28;45438;-59
2022/03/26 05:10:45;;;;;;;;;61.50;43.00;;;;;10.33;48.11;102058.13;5027136;28;45337;-58
2022/03/26 05:13:11;;;;;;;;;64.75;45.75;;;;;10.39;48.27;102070.34;5037581;28;47291;-59
2022/03/26 05:15:37;;;;;;;;;62.75;45.00;;;;;10.29;48.21;102060.03;5031072;28;45670;-58
2022/03/26 05:18:03;;;;;;;;;56.75;45.00;;;;;10.37;48.08;102072.19;5057535;28;45441;-59
2022/03/26 05:20:28;;;;;;;;;64.75;49.25;;;;;10.35;48.68;102066.94;5056737;28;45431;-57
2022/03/26 05:22:54;;;;;;;;;66.25;49.00;;;;;10.36;48.00;102078.44;5024672;28;46143;-58
2022/03/26 05:25:19;;;;;;;;;67.50;50.50;;;;;10.41;48.11;102084.47;5056639;28;45272;-59
2022/03/26 05:27:47;;;;;;;;;64.67;50.33;;;;;10.32;48.72;102064.38;5053252;28;45381;-59
2022/03/26 05:30:13;;;;;;;;;64.00;49.75;;;;;10.41;48.15;102074.69;5057120;28;45661;-57
2022/03/26 05:32:39;;;;;;;;;60.75;45.75;;;;;10.27;47.87;102072.47;5055980;28;45570;-59
2022/03/26 05:35:11;;;;;;;;;57.50;44.00;;;;;10.34;48.20;102097.09;5036977;28;45336;-58
2022/03/26 05:37:37;;;;;;;;;67.75;49.00;;;;;10.29;48.14;102101.72;5045315;28;45653;-58
2022/03/26 05:40:04;;;;;;;;;67.00;47.50;;;;;10.18;48.39;102088.69;5053879;28;45720;-57
2022/03/26 05:42:29;;;;;;;;;65.00;48.00;;;;;10.30;49.04;102101.66;5049902;28;46228;-57
2022/03/26 05:44:54;;;;;;;;;66.00;46.00;;;;;10.35;48.74;102109.47;5051302;28;45422;-57
2022/03/26 05:47:20;;;;;;;;;64.25;50.00;;;;;10.35;48.69;102098.84;5059247;28;45355;-57
2022/03/26 05:49:45;;;;;;;;;66.25;47.75;;;;;10.36;48.02;102105.03;5056655;28;45495;-57
2022/03/26 05:52:11;;;;;;;;;42.50;21.25;;;;;10.34;48.23;102107.75;5040937;28;46319;-58
2022/03/26 05:54:36;;;;;;;;;56.25;44.50;;;;;10.28;48.11;102107.91;5056883;28;45363;-59
2022/03/26 05:57:02;;;;;;;;;59.50;43.50;;;;;10.25;48.53;102097.38;5037388;28;45441;-60
2022/03/26 05:59:28;;;;;;;;;68.00;51.50;;;;;10.19;48.79;102093.09;5050827;28;45531;-59
2022/03/26 06:01:54;;;;;;;;;64.50;50.50;;;;;10.08;49.16;102081.06;5047106;28;46112;-60
2022/03/26 06:04:22;;;;;;;;;64.00;53.75;;;;;10.15;48.23;102098.53;5051879;28;45370;-60
2022/03/26 06:06:48;;;;;;;;;55.50;44.50;;;;;10.12;49.22;102106.59;5043234;28;45436;-59
2022/03/26 06:09:13;;;;;;;;;65.50;48.25;;;;;9.98;48.87;102076.00;5037092;28;45813;-57
2022/03/26 06:11:39;;;;;;;;;65.25;50.75;;;;;10.20;48.78;102104.59;5052433;28;46704;-57
2022/03/26 06:14:06;;;;;;;;;66.00;52.75;;;;;10.06;48.34;102110.34;5055425;28;45503;-58
2022/03/26 06:16:32;;;;;;;;;69.75;50.75;;;;;10.02;49.34;102114.84;5056284;28;45481;-57
2022/03/26 06:18:57;;;;;;;;;69.25;50.00;;;;;10.00;49.34;102119.34;5045917;28;45267;-56
2022/03/26 06:21:23;;;;;;;;;68.25;52.50;;;;;9.97;48.56;102134.53;5036463;28;46132;-57
2022/03/26 06:23:48;;;;;;;;;51.50;40.50;;;;;10.02;49.23;102120.16;5053042;28;45479;-58
2022/03/26 06:26:14;;;;;;;;;71.00;53.50;;;;;9.92;49.36;102113.41;5055292;28;45486;-60
2022/03/26 06:28:40;;;;;;;;;66.25;49.75;;;;;10.02;49.81;102135.25;5027021;28;45476;-57
2022/03/26 06:31:08;;;;;;;;;65.75;51.00;;;;;10.04;48.87;102139.63;5054406;28;46178;-56
2022/03/26 06:33:34;;;;;;;;;65.50;49.75;;;;;10.10;49.31;102137.69;5050684;28;45450;-60
2022/03/26 06:35:59;;;;;;;;;67.25;52.75;;;;;10.08;48.91;102129.75;5053279;28;45452;-58
2022/03/26 06:38:31;;;;;;;;;65.25;49.50;;;;;10.13;48.24;102132.28;5056895;28;45385;-59
2022/03/26 06:40:56;;;;;;;;;64.50;51.00;;;;;10.06;49.78;102144.88;5056056;28;45768;-60
2022/03/26 06:43:21;;;;;;;;;68.75;51.50;;;;;10.12;48.58;102152.66;5036129;28;45348;-60
2022/03/26 06:45:47;;;;;;;;;66.00;50.00;;;;;10.21;48.45;102151.53;5046550;28;45407;-57
2022/03/26 06:48:12;;;;;;;;;62.25;49.00;;;;;10.18;49.08;102146.31;5055707;28;45620;-58
2022/03/26 06:50:37;;;;;;;;;62.50;48.00;;;;;10.23;48.78;102155.06;5056006;28;46183;-57
2022/03/26 06:53:03;;;;;;;;;59.00;49.00;;;;;10.22;49.20;102155.97;5054394;28;45498;-58
2022/03/26 06:55:28;;;;;;;;;67.00;48.00;;;;;10.26;48.43;102158.47;5043332;28;45501;-59
2022/03/26 06:57:54;;;;;;;;;65.50;48.00;;;;;10.24;48.58;102151.47;5027296;28;45353;-60
2022/03/26 07:00:19;;;;;;;;;62.25;49.50;;;;;10.22;49.23;102137.38;5035507;28;45921;-59
2022/03/26 07:02:45;;;;;;;;;59.75;49.75;;;;;10.40;48.56;102158.06;5041574;28;45366;-59
2022/03/26 07:05:15;;;;;;;;;60.50;45.75;;;;;10.43;47.78;102158.00;5050297;28;45392;-57
2022/03/26 07:07:41;;;;;;;;;62.25;48.25;;;;;10.47;48.49;102151.66;5037924;28;45265;-60
2022/03/26 07:10:07;;;;;;;;;68.25;52.50;;;;;10.56;48.39;102163.81;5016002;28;46202;-58
2022/03/26 07:12:33;;;;;;;;;58.50;49.75;;;;;10.55;47.86;102170.06;5042914;28;45543;-56
2022/03/26 07:14:59;;;;;;;;;61.50;49.75;;;;;10.55;47.71;102173.59;5049636;28;45308;-59
2022/03/26 07:17:24;;;;;;;;;62.00;50.25;;;;;10.58;48.13;102173.47;5046820;28;45348;-60
2022/03/26 07:19:51;;;;;;;;;61.00;47.25;;;;;10.63;48.02;102182.19;5055138;28;46369;-60
2022/03/26 07:22:17;;;;;;;;;64.25;51.50;;;;;10.66;47.56;102181.22;5040009;28;45418;-57
2022/03/26 07:24:42;;;;;;;;;68.50;48.25;;;;;10.68;47.52;102186.47;5053286;28;45691;-57
2022/03/26 07:27:08;;;;;;;;;66.00;51.25;;;;;10.66;47.79;102172.34;5029304;28;45555;-61
2022/03/26 07:29:35;;;;;;;;;66.50;52.25;;;;;10.69;47.83;102182.94;5040678;28;45955;-58
2022/03/26 07:32:00;;;;;;;;;64.50;50.00;;;;;10.61;47.66;102178.69;5051933;28;45478;-56
2022/03/26 07:34:26;;;;;;;;;63.75;47.25;;;;;10.59;46.89;102175.22;5044877;28;45267;-58
2022/03/26 07:36:52;;;;;;;;;66.25;53.50;;;;;10.70;47.53;102176.69;5044944;28;45375;-58
2022/03/26 07:39:18;;;;;;;;;58.00;47.25;;;;;10.70;46.99;102180.22;5051773;28;45827;-56
2022/03/26 07:41:44;;;;;;;;;62.00;50.75;;;;;10.72;46.82;102185.50;5049891;28;45599;-57
2022/03/26 07:44:10;;;;;;;;;66.50;51.50;;;;;10.82;47.33;102184.28;5054874;28;45470;-58
2022/03/26 07:46:35;;;;;;;;;60.00;47.50;;;;;10.85;46.65;102174.41;5055558;28;45359;-62
2022/03/26 07:49:00;;;;;;;;;60.25;48.00;;;;;10.96;46.95;102192.69;5029545;28;45697;-57
2022/03/26 07:51:26;;;;;;;;;66.50;49.75;;;;;10.98;46.28;102196.19;5035203;28;45359;-60
2022/03/26 07:53:52;;;;;;;;;60.50;44.75;;;;;10.97;46.91;102183.78;5032565;28;45573;-60
2022/03/26 07:56:17;;;;;;;;;57.00;44.75;;;;;11.09;46.58;102187.84;5046814;28;45477;-58
2022/03/26 07:58:43;;;;;;;;;65.00;51.25;;;;;11.16;45.76;102187.56;5033626;28;46353;-61
2022/03/26 08:01:10;;;;;;;;;61.50;48.50;;;;;11.25;46.69;102193.53;5048434;28;45247;-61
2022/03/26 08:03:36;;;;;;;;;57.50;46.25;;;;;11.34;46.07;102185.25;5033110;28;45511;-59
2022/03/26 08:06:02;;;;;;;;;54.00;46.00;;;;;11.40;45.93;102187.69;5017905;28;45334;-57
2022/03/26 08:08:28;;;;;;;;;60.75;47.00;;;;;11.44;45.51;102191.97;5034986;28;46003;-59
2022/03/26 08:10:53;;;;;;;;;53.25;40.25;;;;;11.47;45.27;102191.91;5034996;28;45494;-59
2022/03/26 08:13:19;;;;;;;;;62.50;48.75;;;;;11.58;45.32;102195.03;5034935;28;45889;-60
2022/03/26 08:15:44;;;;;;;;;56.25;48.00;;;;;11.61;44.72;102178.97;5034918;28;45501;-60
2022/03/26 08:18:09;;;;;;;;;55.50;40.50;;;;;11.74;44.86;102193.59;5039810;28;45434;-61
2022/03/26 08:20:35;;;;;;;;;58.75;47.00;;;;;11.68;44.79;102183.13;5055470;28;45241;-63
2022/03/26 08:23:00;;;;;;;;;61.50;47.75;;;;;11.72;44.35;102175.91;5055436;28;45333;-61
2022/03/26 08:28:11;;;;;;;;;57.25;44.00;;;;;12.02;44.33;102201.50;5054359;28;45426;-58
2022/03/26 08:30:37;;;;;;;;;49.00;43.00;;;;;12.08;43.40;102189.72;5057818;28;45869;-59
2022/03/26 08:33:04;;;;;;;;;61.00;47.00;;;;;12.23;43.87;102199.81;5023907;28;45367;-60
2022/03/26 08:35:34;;;;;;;;;57.00;46.50;;;;;12.36;43.11;102194.88;5058825;28;45414;-60
2022/03/26 08:38:00;;;;;;;;;41.25;34.25;;;;;12.46;42.98;102198.09;5058101;28;46133;-58
2022/03/26 08:40:25;;;;;;;;;58.75;46.25;;;;;12.48;42.46;102190.88;5058508;28;45421;-56
2022/03/26 08:42:50;;;;;;;;;61.50;47.50;;;;;12.52;42.29;102196.06;5058349;28;45913;-60
2022/03/26 08:45:16;;;;;;;;;53.75;39.00;;;;;12.60;41.88;102209.97;5056733;28;45391;-60
2022/03/26 08:47:41;;;;;;;;;47.25;40.00;;;;;12.59;42.01;102180.66;5058173;28;46100;-60
2022/03/26 08:50:08;;;;;;;;;45.00;35.50;;;;;12.90;41.47;102202.56;5058402;28;45323;-60
2022/03/26 08:52:37;;;;;;;;;55.00;43.25;;;;;13.14;41.33;102195.34;5058514;28;45311;-59
2022/03/26 08:55:03;;;;;;;;;46.50;37.75;;;;;13.40;39.10;102202.28;5058606;28;45287;-61
2022/03/26 08:57:29;;;;;;;;;51.00;43.25;;;;;13.62;38.86;102196.91;5056071;28;46152;-59
2022/03/26 08:59:54;;;;;;;;;49.25;37.75;;;;;13.91;38.40;102198.31;5057172;28;45447;-56
2022/03/26 09:02:20;;;;;;;;;43.50;37.50;;;;;14.19;38.04;102197.94;5047383;28;45283;-58
2022/03/26 09:04:46;;;;;;;;;61.25;40.75;;;;;14.42;37.33;102189.72;5019879;28;45432;-59
2022/03/26 09:07:11;;;;;;;;;51.75;41.75;;;;;14.59;36.25;102197.00;5037513;28;45891;-58
2022/03/26 09:09:37;;;;;;;;;48.25;41.75;;;;;14.81;37.40;102196.81;5037526;28;45320;-59
2022/03/26 09:12:03;;;;;;;;;55.75;42.25;;;;;14.91;36.26;102186.53;5037525;28;45404;-59
2022/03/26 09:14:28;;;;;;;;;51.00;40.50;;;;;15.14;36.31;102188.97;5037760;28;45948;-59
2022/03/26 09:16:54;;;;;;;;;45.50;40.25;;;;;15.37;36.38;102189.63;5036923;28;45297;-60
2022/03/26 09:19:19;;;;;;;;;56.75;44.50;;;;;15.58;36.14;102185.81;5035784;28;45345;-57
2022/03/26 09:21:46;;;;;;;;;48.00;36.75;;;;;15.82;36.22;102179.22;5037593;28;45242;-58
2022/03/26 09:24:13;;;;;;;;;50.50;40.00;;;;;16.07;34.62;102176.09;5019648;28;45293;-58
2022/03/26 09:26:42;;;;;;;;;33.75;30.00;;;;;16.35;34.46;102186.19;5044071;28;46580;-59
2022/03/26 09:29:08;;;;;;;;;53.50;40.00;;;;;16.56;34.10;102173.41;5054862;28;45497;-60
2022/03/26 09:31:34;;;;;;;;;53.50;43.25;;;;;16.70;34.16;102156.53;5037179;28;45695;-60
2022/03/26 09:34:00;;;;;;;;;53.75;39.25;;;;;16.93;32.95;102164.16;5037811;28;45630;-59
2022/03/26 09:36:25;;;;;;;;;53.50;43.00;;;;;17.07;32.29;102168.72;5057049;28;45262;-62
2022/03/26 09:38:51;;;;;;;;;54.00;40.00;;;;;17.17;33.02;102174.41;5057292;28;45410;-59
2022/03/26 09:41:16;;;;;;;;;54.50;41.00;;;;;17.39;32.54;102169.50;5058524;28;45575;-60
2022/03/26 09:43:42;;;;;;;;;49.75;41.00;;;;;17.50;32.72;102182.31;5040328;28;45661;-59
2022/03/26 09:46:08;;;;;;;;;45.00;36.25;;;;;17.54;32.87;102167.72;5039844;28;46922;-59
2022/03/26 09:48:34;;;;;;;;;53.25;43.00;;;;;17.62;32.38;102177.06;5038941;28;45439;-60
2022/03/26 09:51:01;;;;;;;;;51.50;41.75;;;;;17.72;32.79;102168.47;5057163;28;45462;-60
2022/03/26 09:53:26;;;;;;;;;53.25;41.00;;;;;17.74;32.57;102163.88;5039808;28;45598;-59
2022/03/26 09:55:52;;;;;;;;;46.00;34.00;;;;;17.78;31.67;102178.84;5039525;28;45467;-56
2022/03/26 09:58:18;;;;;;;;;47.50;39.75;;;;;17.89;32.25;102168.31;5056702;28;45490;-60
2022/03/26 10:00:43;;;;;;;;;47.75;39.00;;;;;17.94;31.89;102167.03;5056611;28;45219;-58
2022/03/26 10:03:09;;;;;;;;;48.75;40.00;;;;;17.86;31.35;102172.06;5037540;28;45553;-61
2022/03/26 10:05:35;;;;;;;;;57.50;44.75;;;;;17.84;31.20;102167.69;5039414;28;47359;-58
2022/03/26 10:08:17;;;;;;;;;49.25;38.00;;;;;17.75;31.99;102166.47;5055804;28;45379;-57
2022/03/26 10:10:46;;;;;;;;;46.25;38.50;;;;;17.76;32.21;102162.81;5037823;28;45522;-59
2022/03/26 10:13:32;;;;;;;;;55.00;43.00;;;;;17.67;31.50;102145.34;5037726;28;45412;-57
2022/03/26 10:16:06;;;;;;;;;50.75;40.75;;;;;17.65;31.30;102155.34;5056698;28;45374;-58
2022/03/26 10:18:38;;;;;;;;;48.25;38.75;;;;;17.65;31.72;102155.34;5038339;28;45494;-57
2022/03/26 10:21:11;;;;;;;;;53.50;43.00;;;;;17.65;31.11;102160.72;5055612;28;45343;-57
2022/03/26 10:23:45;;;;;;;;;53.50;41.00;;;;;17.69;31.55;102156.91;5039355;28;45538;-62
2022/03/26 10:26:11;;;;;;;;;51.75;41.25;;;;;17.74;32.28;102161.19;5057446;28;45431;-58
2022/03/26 10:28:40;;;;;;;;;56.50;43.75;;;;;17.78;32.14;102151.94;5056846;28;45370;-56
2022/03/26 10:34:07;;;;;;;;;59.00;44.50;;;;;17.85;31.03;102162.25;5056767;28;45244;-60
2022/03/26 10:36:43;;;;;;;;;52.50;43.50;;;;;17.86;31.43;102145.13;5038021;28;46207;-60
2022/03/26 10:39:30;;;;;;;;;52.75;43.00;;;;;17.95;30.69;102146.38;5038661;28;45275;-60
2022/03/26 10:41:57;;;;;;;;;51.50;41.00;;;;;17.90;30.21;102149.38;5056198;28;45319;-58
2022/03/26 10:44:24;;;;;;;;;48.50;39.00;;;;;17.96;30.25;102145.41;5056203;28;45755;-59
2022/03/26 10:46:54;;;;;;;;;58.75;44.50;;;;;18.03;30.39;102151.28;5055445;28;45367;-60
2022/03/26 10:49:30;;;;;;;;;54.75;43.00;;;;;18.10;30.23;102145.44;5038273;28;45297;-60
2022/03/26 10:51:57;;;;;;;;;47.00;36.75;;;;;18.08;29.77;102144.63;5037828;28;45322;-60
2022/03/26 10:54:31;;;;;;;;;56.75;43.50;;;;;18.07;29.78;102126.75;5056358;28;45222;-59
2022/03/26 10:56:58;;;;;;;;;51.50;39.75;;;;;18.25;29.42;102135.53;5055753;28;46201;-60
2022/03/26 10:59:24;;;;;;;;;61.25;44.25;;;;;18.25;29.63;102132.81;5055727;28;45463;-60
2022/03/26 11:01:50;;;;;;;;;52.00;42.50;;;;;18.46;29.31;102127.88;5049290;28;45308;-58
2022/03/26 11:04:16;;;;;;;;;55.75;44.00;;;;;18.50;28.68;102119.50;5035961;28;45622;-59
2022/03/26 11:06:43;;;;;;;;;56.75;45.25;;;;;18.64;27.71;102131.25;5035807;28;45439;-59
2022/03/26 11:09:10;;;;;;;;;52.50;43.00;;;;;18.71;27.81;102130.72;5017920;28;45279;-58
2022/03/26 11:11:36;;;;;;;;;57.25;43.25;;;;;18.72;28.00;102126.19;5018176;28;45381;-58